Adona, Arkansas
Current Conditions -  °F | °C
As of 8:53 AM on Sunday 23 Nov 2014 (Local Time) from KRUE Reporting Station
Light Rain Light Rain  
Wind Chill: 14°   Ceiling: 1100
Heat Index: 14°   Visibility: 7mi
Dew Point: 13°   Wind: 0mph
Humidity: 93%   Direction: NA
Pressure: 29.57"   Gusts: NA
Location:  35.04°N, 92.9°W
Report Text: KRUE 231453Z AUTO 00000KT 7SM -RA OVC011 14/13 A2957 RMK AO2 RAB21 SLP009 P0001 6//// T01440133 58017
Loading
Personal Weather Stations






























Interactive Weather Map New forecast layout! Learn more

10-Day Weather Forecast

Advertisements
Track Severe Weather on mobile